Time;durP1;ratioP1;P1;durP2;ratioP2;P2;SDS_P1;SDS_P2;PMS_P1;PMS_P2;Temp;Humidity;BMP_temperature;BMP_pressure;BME280_temperature;BME280_humidity;BME280_pressure;Samples;Min_cycle;Max_cycle;Signal;HPM_P1;HPM_P2
2021/09/16 00:03:57;;;;;;;26.65;23.85;;;24.90;54.60;;;;;;4754771;55;21057;-34
2021/09/16 00:08:58;;;;;;;28.10;25.15;;;24.90;54.70;;;;;;4732105;54;21085;-33
2021/09/16 00:13:59;;;;;;;27.15;24.35;;;24.90;54.60;;;;;;4763302;54;21017;-30
2021/09/16 00:18:59;;;;;;;26.50;23.73;;;24.90;54.70;;;;;;4737462;54;21065;-31
2021/09/16 00:24:00;;;;;;;26.73;23.90;;;24.90;54.60;;;;;;4732643;54;21570;-32
2021/09/16 00:29:01;;;;;;;26.92;24.12;;;24.90;54.60;;;;;;4734954;55;21029;-32
2021/09/16 00:34:02;;;;;;;26.08;23.27;;;24.90;54.70;;;;;;4734833;55;21088;-34
2021/09/16 00:39:03;;;;;;;25.80;23.10;;;24.90;54.60;;;;;;4745389;55;21550;-32
2021/09/16 00:44:04;;;;;;;25.35;22.65;;;24.90;54.60;;;;;;4734595;54;21025;-34
2021/09/16 00:49:06;;;;;;;26.00;23.30;;;24.90;54.60;;;;;;4760688;55;21037;-33
2021/09/16 00:54:10;;;;;;;26.52;23.65;;;24.90;54.60;;;;;;4733736;55;21554;-33
2021/09/16 00:59:13;;;;;;;24.63;22.08;;;24.90;54.60;;;;;;4781210;54;21034;-34
2021/09/16 01:04:14;;;;;;;24.63;22.08;;;24.90;54.60;;;;;;4751375;54;21005;-32
2021/09/16 01:09:16;;;;;;;25.48;22.77;;;24.90;54.60;;;;;;4731376;59;21005;-31
2021/09/16 01:14:24;;;;;;;24.12;21.60;;;24.90;54.60;;;;;;4753174;54;21033;-32
2021/09/16 01:19:25;;;;;;;23.92;21.50;;;24.90;54.60;;;;;;4730575;59;21057;-30
2021/09/16 01:24:26;;;;;;;25.17;22.65;;;24.90;54.60;;;;;;4764535;55;21024;-34
2021/09/16 01:29:27;;;;;;;24.60;22.00;;;24.90;54.60;;;;;;4760861;54;21049;-33
2021/09/16 01:34:28;;;;;;;25.12;22.55;;;24.90;54.60;;;;;;4735649;55;21082;-32
2021/09/16 01:39:29;;;;;;;22.98;20.58;;;24.90;54.60;;;;;;4756185;55;21448;-32
2021/09/16 01:44:31;;;;;;;24.48;21.98;;;24.90;54.60;;;;;;4743993;54;20998;-33
2021/09/16 01:49:32;;;;;;;24.23;21.77;;;24.90;55.30;;;;;;4734406;55;21535;-31
2021/09/16 01:54:33;;;;;;;23.05;20.75;;;24.90;55.20;;;;;;4740792;54;21017;-33
2021/09/16 01:59:33;;;;;;;23.65;21.25;;;24.90;54.60;;;;;;4732705;58;21005;-35
2021/09/16 02:04:34;;;;;;;24.02;21.58;;;24.90;54.60;;;;;;4735166;55;21578;-32
2021/09/16 02:09:35;;;;;;;22.13;19.83;;;24.90;54.60;;;;;;4741157;55;21041;-31
2021/09/16 02:14:36;;;;;;;22.55;20.15;;;24.90;54.70;;;;;;4742566;55;21021;-32
2021/09/16 02:19:37;;;;;;;23.25;20.92;;;24.90;54.60;;;;;;4787561;55;21045;-32
2021/09/16 02:24:37;;;;;;;22.33;20.10;;;24.90;54.70;;;;;;4753236;54;21017;-31
2021/09/16 02:29:38;;;;;;;23.52;21.23;;;24.90;54.60;;;;;;4742708;55;21025;-33
2021/09/16 02:34:39;;;;;;;22.45;20.15;;;24.90;54.60;;;;;;4743608;55;21074;-32
2021/09/16 02:39:40;;;;;;;22.55;20.30;;;24.90;54.70;;;;;;4769810;55;21522;-31
2021/09/16 02:44:41;;;;;;;22.90;20.60;;;24.90;54.60;;;;;;4745774;55;21575;-33
2021/09/16 02:49:42;;;;;;;21.73;19.52;;;24.90;54.60;;;;;;4743361;55;21061;-27
2021/09/16 02:54:43;;;;;;;22.15;19.92;;;24.90;54.60;;;;;;4774606;54;21030;-33
2021/09/16 02:59:44;;;;;;;21.20;19.10;;;24.90;54.60;;;;;;4763909;55;21073;-32
2021/09/16 03:04:44;;;;;;;21.83;19.55;;;24.90;54.60;;;;;;4739180;54;21018;-33
2021/09/16 03:09:45;;;;;;;20.80;18.70;;;24.90;54.60;;;;;;4740585;55;21568;-32
2021/09/16 03:14:46;;;;;;;21.37;19.17;;;24.90;54.60;;;;;;4735295;55;21567;-27
2021/09/16 03:19:47;;;;;;;21.10;19.00;;;24.90;54.70;;;;;;4738916;54;21129;-33
2021/09/16 03:24:48;;;;;;;22.17;19.85;;;24.90;54.60;;;;;;4731835;59;21064;-33
2021/09/16 03:29:48;;;;;;;20.60;18.50;;;24.90;54.70;;;;;;4748276;54;21112;-30
2021/09/16 03:34:49;;;;;;;20.95;18.85;;;24.90;54.60;;;;;;4747330;55;21104;-33
2021/09/16 03:39:50;;;;;;;20.70;18.60;;;24.90;54.60;;;;;;4750018;55;21362;-33
2021/09/16 03:44:51;;;;;;;20.92;18.83;;;24.90;54.60;;;;;;4741012;54;21040;-30
2021/09/16 03:49:52;;;;;;;21.23;19.12;;;24.90;54.70;;;;;;4736684;55;21017;-31
2021/09/16 03:54:52;;;;;;;20.35;18.35;;;24.90;54.70;;;;;;4749797;55;21487;-32
2021/09/16 03:59:53;;;;;;;20.23;18.05;;;24.90;54.70;;;;;;4736948;55;21112;-33
2021/09/16 04:04:54;;;;;;;20.35;18.25;;;24.90;54.70;;;;;;4781086;55;21029;-30
2021/09/16 04:09:55;;;;;;;19.65;17.65;;;24.80;54.70;;;;;;4752614;54;21021;-33
2021/09/16 04:14:56;;;;;;;18.92;16.98;;;24.80;54.70;;;;;;4752703;54;21021;-31
2021/09/16 04:19:57;;;;;;;19.55;17.55;;;24.90;54.80;;;;;;4752639;55;21033;-31
2021/09/16 04:24:57;;;;;;;19.17;17.27;;;24.80;54.70;;;;;;4779564;55;21016;-30
2021/09/16 04:29:58;;;;;;;18.90;17.00;;;24.80;54.70;;;;;;4753614;55;21025;-32
2021/09/16 04:34:59;;;;;;;19.33;17.35;;;24.80;54.70;;;;;;4733607;55;21044;-29
2021/09/16 04:40:01;;;;;;;18.65;16.85;;;24.80;54.80;;;;;;4746105;55;21491;-30
2021/09/16 04:45:01;;;;;;;18.27;16.37;;;24.90;55.40;;;;;;4754129;54;21009;-30
2021/09/16 04:50:03;;;;;;;18.02;16.23;;;24.80;54.80;;;;;;4771328;55;21061;-30
2021/09/16 04:55:05;;;;;;;18.42;16.62;;;24.80;54.80;;;;;;4731196;59;21041;-30
2021/09/16 05:00:07;;;;;;;19.02;17.05;;;24.80;54.80;;;;;;4758970;54;21009;-33
2021/09/16 05:05:09;;;;;;;18.17;16.37;;;24.80;54.80;;;;;;4746494;54;21511;-28
2021/09/16 05:10:10;;;;;;;18.52;16.62;;;24.80;54.80;;;;;;4744225;54;20993;-32
2021/09/16 05:15:11;;;;;;;18.62;16.73;;;24.80;54.80;;;;;;4773983;55;21041;-31
2021/09/16 05:20:13;;;;;;;19.05;17.15;;;24.80;54.80;;;;;;4749279;55;21074;-34
2021/09/16 05:25:13;;;;;;;17.70;16.05;;;24.80;54.90;;;;;;4745847;54;21021;-32
2021/09/16 05:30:15;;;;;;;17.80;16.02;;;24.80;54.90;;;;;;4734178;55;21500;-31
2021/09/16 05:35:16;;;;;;;16.87;15.18;;;24.80;54.90;;;;;;4746552;54;21555;-30
2021/09/16 05:40:17;;;;;;;18.35;16.45;;;24.80;54.90;;;;;;4770814;55;21041;-31
2021/09/16 05:45:18;;;;;;;17.77;15.85;;;24.80;55.00;;;;;;4755887;55;21041;-33
2021/09/16 05:50:18;;;;;;;17.90;16.00;;;24.80;54.90;;;;;;4847047;54;21019;-33
2021/09/16 05:55:19;;;;;;;18.05;16.20;;;24.80;54.90;;;;;;4738810;55;21077;-33
2021/09/16 06:00:20;;;;;;;17.58;15.77;;;24.80;54.90;;;;;;4771933;55;21978;-32
2021/09/16 06:05:21;;;;;;;17.85;16.05;;;24.80;54.90;;;;;;4747604;55;21048;-34
2021/09/16 06:10:22;;;;;;;17.80;16.00;;;24.80;54.90;;;;;;4752927;55;21560;-34
2021/09/16 06:15:23;;;;;;;16.80;15.20;;;24.80;54.90;;;;;;4731613;59;21756;-36
2021/09/16 06:20:24;;;;;;;17.37;15.68;;;24.80;54.90;;;;;;4746143;54;21084;-34
2021/09/16 06:25:28;;;;;;;18.45;16.60;;;24.80;54.90;;;;;;4748570;54;21041;-34
2021/09/16 06:30:28;;;;;;;17.65;15.85;;;24.70;54.90;;;;;;4744230;54;21504;-34
2021/09/16 06:35:29;;;;;;;17.55;15.70;;;24.70;54.90;;;;;;4731191;59;21069;-31
2021/09/16 06:40:30;;;;;;;18.35;16.45;;;24.80;54.90;;;;;;4742165;55;21021;-32
2021/09/16 06:45:31;;;;;;;17.45;15.80;;;24.80;54.90;;;;;;4762369;55;21013;-33
2021/09/16 06:50:32;;;;;;;18.23;16.37;;;24.80;54.90;;;;;;4777112;55;21575;-35
2021/09/16 06:55:32;;;;;;;20.27;16.85;;;24.80;54.90;;;;;;4745943;55;21037;-31
2021/09/16 07:00:33;;;;;;;18.27;16.25;;;24.70;54.90;;;;;;4732053;59;21018;-31
2021/09/16 07:05:34;;;;;;;18.45;16.48;;;24.80;54.90;;;;;;4803839;55;21029;-32
2021/09/16 07:10:35;;;;;;;18.87;16.98;;;24.70;54.90;;;;;;4733067;55;21662;-34
2021/09/16 07:15:36;;;;;;;21.12;17.48;;;24.70;55.00;;;;;;4756089;55;21635;-35
2021/09/16 07:20:36;;;;;;;18.67;16.55;;;24.70;55.10;;;;;;4775038;55;21172;-31
2021/09/16 07:25:37;;;;;;;18.30;16.37;;;24.80;55.30;;;;;;4740209;55;21529;-29
2021/09/16 07:30:38;;;;;;;18.67;16.70;;;24.80;55.40;;;;;;4763561;55;21154;-29
2021/09/16 07:35:39;;;;;;;18.25;16.33;;;24.90;55.50;;;;;;4750016;55;20996;-34
2021/09/16 07:40:40;;;;;;;19.50;17.00;;;24.90;55.60;;;;;;4751608;55;21037;-32
2021/09/16 07:45:40;;;;;;;18.95;16.95;;;24.90;55.80;;;;;;4731280;59;21507;-30
2021/09/16 07:50:41;;;;;;;22.75;18.62;;;25.00;55.90;;;;;;4730265;59;21030;-33
2021/09/16 07:55:42;;;;;;;19.80;17.62;;;25.00;55.90;;;;;;4741976;54;21520;-32
2021/09/16 08:00:43;;;;;;;21.52;18.12;;;25.00;56.00;;;;;;4734677;54;20997;-30
2021/09/16 08:05:47;;;;;;;20.73;18.52;;;25.10;56.20;;;;;;4731056;59;21455;-32
2021/09/16 08:10:48;;;;;;;21.58;19.23;;;25.10;56.20;;;;;;4771296;55;21122;-31
2021/09/16 08:15:49;;;;;;;20.92;18.65;;;25.20;56.30;;;;;;4730143;56;21174;-32
2021/09/16 08:20:51;;;;;;;23.95;19.90;;;25.20;56.40;;;;;;4745859;54;21009;-35
2021/09/16 08:25:52;;;;;;;22.45;19.23;;;25.20;56.30;;;;;;4749254;55;21683;-31
2021/09/16 08:30:53;;;;;;;22.87;20.37;;;25.20;56.10;;;;;;4730987;56;21036;-34
2021/09/16 08:35:54;;;;;;;23.87;20.23;;;25.20;56.00;;;;;;4777783;55;22267;-33
2021/09/16 08:40:55;;;;;;;22.42;20.02;;;25.20;55.90;;;;;;4757489;55;21028;-33
2021/09/16 08:45:58;;;;;;;21.15;18.85;;;25.20;55.90;;;;;;4749071;54;21136;-35
2021/09/16 08:50:59;;;;;;;22.75;20.45;;;25.20;55.80;;;;;;4771257;54;21045;-31
2021/09/16 08:56:03;;;;;;;21.77;19.40;;;25.20;55.80;;;;;;4734922;54;21021;-30
2021/09/16 09:01:05;;;;;;;22.50;20.10;;;25.20;56.00;;;;;;4747130;54;21606;-30
2021/09/16 09:06:42;;;;;;;23.05;19.90;;;25.20;56.00;;;;;;4730460;58;21093;-31
2021/09/16 09:11:55;;;;;;;22.67;19.52;;;25.20;56.10;;;;;;4758007;55;21468;-28
2021/09/16 09:16:58;;;;;;;22.55;20.15;;;25.30;56.30;;;;;;4761597;54;21503;-31
2021/09/16 09:22:05;;;;;;;24.30;19.70;;;25.30;56.30;;;;;;4734646;55;21539;-31
2021/09/16 09:27:30;;;;;;;22.15;19.65;;;25.30;56.40;;;;;;4730647;58;21057;-29
2021/09/16 09:33:02;;;;;;;21.83;19.52;;;25.40;56.80;;;;;;4741729;54;21021;-30
2021/09/16 09:38:21;;;;;;;22.05;19.30;;;25.40;57.10;;;;;;4734454;54;21053;-29
2021/09/16 09:43:33;;;;;;;22.27;19.75;;;25.40;57.30;;;;;;4737953;54;21559;-33
2021/09/16 09:48:56;;;;;;;23.00;19.55;;;25.50;57.50;;;;;;4777246;55;20993;-30
2021/09/16 09:54:00;;;;;;;23.92;20.58;;;25.50;57.50;;;;;;4780890;54;21699;-31
2021/09/16 09:59:01;;;;;;;23.87;19.30;;;25.50;58.00;;;;;;4782525;55;21085;-31
2021/09/16 10:04:27;;;;;;;24.23;19.30;;;25.60;57.90;;;;;;4751683;55;22002;-31
2021/09/16 10:09:28;;;;;;;22.33;19.92;;;25.60;58.20;;;;;;4730875;58;21123;-26
2021/09/16 10:14:29;;;;;;;25.20;20.08;;;25.60;58.10;;;;;;4743577;54;21056;-33
2021/09/16 10:19:31;;;;;;;22.85;20.30;;;25.60;58.10;;;;;;4740799;55;21041;-31
2021/09/16 10:24:32;;;;;;;23.60;19.50;;;25.60;58.10;;;;;;4731360;55;21559;-30
2021/09/16 10:29:36;;;;;;;25.35;20.00;;;25.60;58.10;;;;;;4761361;54;21069;-29
2021/09/16 10:34:50;;;;;;;22.75;19.05;;;25.60;58.10;;;;;;4760164;54;21555;-31
2021/09/16 10:39:51;;;;;;;22.40;19.45;;;25.60;58.20;;;;;;4741974;54;21096;-32
2021/09/16 10:45:07;;;;;;;22.27;18.75;;;25.60;58.20;;;;;;4759915;54;21131;-30
2021/09/16 10:50:45;;;;;;;21.00;18.90;;;25.60;58.30;;;;;;4739355;54;21235;-30
2021/09/16 10:55:46;;;;;;;23.83;19.73;;;25.60;58.40;;;;;;4730634;58;21017;-33
2021/09/16 11:00:47;;;;;;;22.15;19.40;;;25.70;58.40;;;;;;4762269;55;21487;-32
2021/09/16 11:05:53;;;;;;;20.98;18.75;;;25.70;59.00;;;;;;4730626;59;21131;-31
2021/09/16 11:10:57;;;;;;;22.02;17.85;;;25.70;59.30;;;;;;4729716;59;21101;-32
2021/09/16 11:15:58;;;;;;;21.60;18.85;;;25.70;59.60;;;;;;4773373;54;22364;-31
2021/09/16 11:21:03;;;;;;;29.73;21.73;;;25.70;59.60;;;;;;4747486;54;21046;-30
2021/09/16 11:26:05;;;;;;;27.25;21.60;;;25.70;59.30;;;;;;4741987;54;21527;-28
2021/09/16 11:31:05;;;;;;;24.17;20.70;;;25.70;59.20;;;;;;4730176;59;21532;-30
2021/09/16 11:36:07;;;;;;;26.27;21.27;;;25.80;59.10;;;;;;4750104;55;21073;-29
2021/09/16 11:41:08;;;;;;;25.73;21.67;;;25.70;59.00;;;;;;4761749;54;21493;-31
2021/09/16 11:46:15;;;;;;;27.05;21.05;;;25.70;58.80;;;;;;4741845;55;21108;-33
2021/09/16 11:51:15;;;;;;;26.60;21.12;;;25.70;58.80;;;;;;4783167;55;21515;-33
2021/09/16 11:56:18;;;;;;;29.92;21.77;;;25.70;58.70;;;;;;4731800;55;21029;-30
2021/09/16 12:01:19;;;;;;;36.63;21.80;;;25.70;57.30;;;;;;4758943;54;21005;-27
2021/09/16 12:06:20;;;;;;;39.20;22.08;;;25.70;56.00;;;;;;4730919;59;21518;-30
2021/09/16 12:11:26;;;;;;;48.58;28.27;;;25.80;55.70;;;;;;4730989;55;21021;-32
2021/09/16 12:16:32;;;;;;;60.15;30.48;;;25.80;54.80;;;;;;4777271;54;21025;-31
2021/09/16 12:21:40;;;;;;;66.87;34.13;;;25.90;54.30;;;;;;4735162;55;21049;-31
2021/09/16 12:26:43;;;;;;;71.97;39.03;;;25.90;54.00;;;;;;4730859;58;21045;-28
2021/09/16 12:32:02;;;;;;;80.50;43.47;;;25.90;53.90;;;;;;4752704;54;21029;-31
2021/09/16 12:37:11;;;;;;;87.03;47.78;;;25.90;54.30;;;;;;4741290;54;21487;-28
2021/09/16 12:42:16;;;;;;;81.18;47.78;;;26.00;53.80;;;;;;4736219;54;21468;-32
2021/09/16 12:47:18;;;;;;;93.10;48.33;;;26.00;53.40;;;;;;4753125;54;21174;-32
2021/09/16 12:52:29;;;;;;;83.70;46.13;;;26.00;53.20;;;;;;4740799;55;21065;-32
2021/09/16 12:57:34;;;;;;;78.65;45.53;;;26.00;53.20;;;;;;4752541;55;20998;-31
2021/09/16 13:02:56;;;;;;;79.87;42.67;;;26.00;52.90;;;;;;4731570;54;21057;-27
2021/09/16 13:08:12;;;;;;;74.90;43.05;;;26.10;53.20;;;;;;4740040;54;21583;-28
2021/09/16 13:13:35;;;;;;;79.43;44.35;;;26.10;53.00;;;;;;4751072;54;21492;-32
2021/09/16 13:18:37;;;;;;;84.35;46.95;;;26.10;53.30;;;;;;4735444;55;21053;-32
2021/09/16 13:23:38;;;;;;;78.95;45.63;;;26.10;52.70;;;;;;4752269;55;21595;-29
2021/09/16 13:28:40;;;;;;;76.43;43.92;;;26.10;52.40;;;;;;4747138;55;21017;-32
2021/09/16 13:33:41;;;;;;;77.47;45.90;;;26.10;52.60;;;;;;4755224;55;21467;-30
2021/09/16 13:38:41;;;;;;;79.40;46.67;;;26.10;52.70;;;;;;4740515;54;21001;-29
2021/09/16 13:43:42;;;;;;;80.22;45.60;;;26.10;52.50;;;;;;4744547;55;21058;-31
2021/09/16 13:48:43;;;;;;;79.72;44.55;;;26.10;52.90;;;;;;4747830;55;21513;-28
2021/09/16 13:53:44;;;;;;;75.25;47.05;;;26.10;53.60;;;;;;4729710;59;21112;-30
2021/09/16 13:58:44;;;;;;;80.03;47.55;;;26.10;53.00;;;;;;4741046;55;21084;-31
2021/09/16 14:03:47;;;;;;;83.37;45.83;;;26.10;53.00;;;;;;4746526;54;21005;-32
2021/09/16 14:08:49;;;;;;;78.50;46.97;;;26.20;53.10;;;;;;4739879;55;21547;-31
2021/09/16 14:13:50;;;;;;;86.57;44.28;;;26.20;53.40;;;;;;4783652;55;21511;-34
2021/09/16 14:18:50;;;;;;;77.15;44.40;;;26.10;53.60;;;;;;4763586;55;21045;-30
2021/09/16 14:23:51;;;;;;;77.68;45.00;;;26.10;53.80;;;;;;4753583;55;21068;-33
2021/09/16 14:28:52;;;;;;;72.20;42.72;;;26.10;54.00;;;;;;4741547;54;21460;-30
2021/09/16 14:33:53;;;;;;;73.15;43.72;;;26.10;54.30;;;;;;4730064;58;21012;-30
2021/09/16 14:38:54;;;;;;;72.10;44.13;;;26.00;54.50;;;;;;4779867;55;21068;-30
2021/09/16 14:43:55;;;;;;;69.28;43.08;;;26.00;54.70;;;;;;4744720;55;21523;-29
2021/09/16 14:48:56;;;;;;;63.67;41.28;;;26.00;55.00;;;;;;4730369;59;21008;-30
2021/09/16 14:53:58;;;;;;;68.50;41.22;;;26.10;55.30;;;;;;4742541;55;21021;-33
2021/09/16 14:58:58;;;;;;;64.45;40.67;;;26.10;55.50;;;;;;4742533;55;21611;-32
2021/09/16 15:03:59;;;;;;;66.60;40.97;;;26.00;55.70;;;;;;4734838;54;21064;-31
2021/09/16 15:09:00;;;;;;;58.65;40.05;;;26.00;55.70;;;;;;4780240;55;21085;-32
2021/09/16 15:14:01;;;;;;;63.22;39.88;;;25.90;55.70;;;;;;4738818;54;21028;-27
2021/09/16 15:19:02;;;;;;;67.37;40.78;;;25.90;55.70;;;;;;4737386;54;21607;-33
2021/09/16 15:24:03;;;;;;;65.50;39.75;;;25.90;55.80;;;;;;4770644;55;21120;-31
2021/09/16 15:29:03;;;;;;;63.38;39.50;;;25.80;55.80;;;;;;4744655;54;21089;-36
2021/09/16 15:34:04;;;;;;;60.88;40.42;;;25.80;55.90;;;;;;4789975;55;21013;-35
2021/09/16 15:39:05;;;;;;;58.50;37.25;;;25.80;56.00;;;;;;4731864;54;21040;-29
2021/09/16 15:44:06;;;;;;;60.08;40.00;;;25.70;56.00;;;;;;4746437;55;21484;-32
2021/09/16 15:49:07;;;;;;;59.38;39.75;;;25.70;56.00;;;;;;4730892;59;21499;-32
2021/09/16 15:54:08;;;;;;;56.88;38.42;;;25.70;56.10;;;;;;4731202;59;20993;-32
2021/09/16 15:59:09;;;;;;;58.08;39.13;;;25.70;56.10;;;;;;4765590;55;21048;-29
2021/09/16 16:04:10;;;;;;;53.70;38.20;;;25.60;56.10;;;;;;4747349;54;21029;-35
2021/09/16 16:09:10;;;;;;;56.20;38.85;;;25.60;56.10;;;;;;4743331;55;21610;-33
2021/09/16 16:14:11;;;;;;;55.35;37.88;;;25.60;56.10;;;;;;4774469;55;21785;-33
2021/09/16 16:19:12;;;;;;;54.00;38.45;;;25.60;56.20;;;;;;4799915;55;21049;-34
2021/09/16 16:24:13;;;;;;;51.37;36.95;;;25.60;56.20;;;;;;4738822;55;21006;-33
2021/09/16 16:29:14;;;;;;;55.60;37.08;;;25.60;56.20;;;;;;4743900;55;21080;-33
2021/09/16 16:34:14;;;;;;;53.75;37.45;;;25.60;56.20;;;;;;4731907;59;21017;-30
2021/09/16 16:39:15;;;;;;;52.70;38.17;;;25.50;56.10;;;;;;4731044;59;21540;-32
2021/09/16 16:44:17;;;;;;;54.78;37.13;;;25.50;56.20;;;;;;4751839;54;20997;-29
2021/09/16 16:49:17;;;;;;;52.47;37.28;;;25.50;56.20;;;;;;4759593;54;21074;-35
2021/09/16 16:54:18;;;;;;;47.70;35.45;;;25.50;56.20;;;;;;4746318;54;21001;-32
2021/09/16 16:59:19;;;;;;;50.88;37.53;;;25.50;56.20;;;;;;4753671;55;21524;-33
2021/09/16 17:04:20;;;;;;;50.53;35.55;;;25.50;56.20;;;;;;4732434;59;20994;-30
2021/09/16 17:09:21;;;;;;;48.72;36.03;;;25.50;56.20;;;;;;4743703;54;21114;-27
2021/09/16 17:14:21;;;;;;;46.05;34.88;;;25.50;56.20;;;;;;4735591;55;21527;-32
2021/09/16 17:19:22;;;;;;;48.47;35.85;;;25.50;56.20;;;;;;4731048;58;21626;-33
2021/09/16 17:24:23;;;;;;;48.08;35.63;;;25.50;56.20;;;;;;4749325;55;21013;-31
2021/09/16 17:29:24;;;;;;;47.30;36.40;;;25.40;56.20;;;;;;4736440;55;21057;-31
2021/09/16 17:34:25;;;;;;;48.83;36.58;;;25.50;56.30;;;;;;4737190;54;21135;-33
2021/09/16 17:39:26;;;;;;;47.47;35.60;;;25.50;56.30;;;;;;4731605;59;21048;-33
2021/09/16 17:44:27;;;;;;;46.88;35.22;;;25.50;56.30;;;;;;4738474;54;21480;-30
2021/09/16 17:49:28;;;;;;;48.85;35.17;;;25.50;56.30;;;;;;4736575;54;21072;-33
2021/09/16 17:54:29;;;;;;;46.45;35.33;;;25.50;56.30;;;;;;4798789;55;21471;-31
2021/09/16 17:59:39;;;;;;;49.83;35.22;;;25.50;56.30;;;;;;4761562;54;21053;-31
2021/09/16 18:04:41;;;;;;;41.47;34.30;;;25.40;56.30;;;;;;4731510;59;21160;-34
2021/09/16 18:09:42;;;;;;;44.97;35.28;;;25.40;56.30;;;;;;4755799;55;21579;-34
2021/09/16 18:14:42;;;;;;;44.38;34.22;;;25.40;56.40;;;;;;4748065;55;21068;-33
2021/09/16 18:19:43;;;;;;;45.38;33.53;;;25.40;56.30;;;;;;4761237;54;21226;-26
2021/09/16 18:24:44;;;;;;;45.55;34.50;;;25.40;56.30;;;;;;4731341;55;22003;-34
2021/09/16 18:29:46;;;;;;;44.97;34.08;;;25.40;56.30;;;;;;4737341;55;21013;-34
2021/09/16 18:34:47;;;;;;;43.75;34.45;;;25.40;56.30;;;;;;4737349;54;21086;-33
2021/09/16 18:39:47;;;;;;;44.45;34.25;;;25.40;56.30;;;;;;4757675;54;21037;-29
2021/09/16 18:44:48;;;;;;;42.88;32.08;;;25.40;56.30;;;;;;4755883;54;21532;-31
2021/09/16 18:49:49;;;;;;;43.13;33.22;;;25.40;56.40;;;;;;4737353;55;21030;-31
2021/09/16 18:54:50;;;;;;;44.83;33.75;;;25.40;56.40;;;;;;4738118;55;21041;-33
2021/09/16 18:59:50;;;;;;;44.22;32.78;;;25.40;56.40;;;;;;4738185;54;21103;-30
2021/09/16 19:04:51;;;;;;;46.22;34.20;;;25.40;56.40;;;;;;4740287;55;21531;-34
2021/09/16 19:09:54;;;;;;;41.65;31.75;;;25.40;56.40;;;;;;4733675;55;21029;-33
2021/09/16 19:14:54;;;;;;;43.92;33.88;;;25.40;56.10;;;;;;4748756;55;21480;-32
2021/09/16 19:19:55;;;;;;;44.03;33.78;;;25.40;56.50;;;;;;4738361;55;21010;-33
2021/09/16 19:24:56;;;;;;;42.45;32.75;;;25.40;56.50;;;;;;4738904;55;21037;-32
2021/09/16 19:29:57;;;;;;;41.33;33.08;;;25.40;56.40;;;;;;4741185;55;21020;-32
2021/09/16 19:34:58;;;;;;;41.15;32.25;;;25.40;56.40;;;;;;4740294;55;21084;-31
2021/09/16 19:39:58;;;;;;;40.65;31.87;;;25.40;56.50;;;;;;4741189;55;21069;-32
2021/09/16 19:45:00;;;;;;;41.33;32.00;;;25.40;56.50;;;;;;4759393;55;21100;-28
2021/09/16 19:50:00;;;;;;;40.38;31.67;;;25.40;56.50;;;;;;4742583;54;21077;-33
2021/09/16 19:55:03;;;;;;;39.30;31.87;;;25.40;56.50;;;;;;4741149;54;21001;-34
2021/09/16 20:00:06;;;;;;;41.72;31.00;;;25.40;56.50;;;;;;4749638;54;21017;-29
2021/09/16 20:05:08;;;;;;;41.50;31.62;;;25.40;56.60;;;;;;4737167;54;21096;-29
2021/09/16 20:10:10;;;;;;;41.17;31.00;;;25.40;56.60;;;;;;4746391;54;21097;-33
2021/09/16 20:15:11;;;;;;;40.78;30.75;;;25.40;56.60;;;;;;4761308;54;21037;-34
2021/09/16 20:20:13;;;;;;;37.45;30.30;;;25.40;56.60;;;;;;4759230;55;21029;-32
2021/09/16 20:25:14;;;;;;;39.50;30.37;;;25.40;56.60;;;;;;4743720;55;20997;-34
2021/09/16 20:30:15;;;;;;;38.78;30.27;;;25.40;56.60;;;;;;4730567;59;21025;-33
2021/09/16 20:35:16;;;;;;;36.47;29.17;;;25.30;56.60;;;;;;4732045;54;21520;-33
2021/09/16 20:40:17;;;;;;;38.17;30.27;;;25.40;56.80;;;;;;4801411;55;21013;-32
2021/09/16 20:45:18;;;;;;;37.17;28.45;;;25.30;56.60;;;;;;4732700;54;21013;-34
2021/09/16 20:50:19;;;;;;;36.67;28.98;;;25.40;56.70;;;;;;4733005;55;21028;-33
2021/09/16 20:55:19;;;;;;;36.65;28.55;;;25.30;56.60;;;;;;4733492;55;21001;-32
2021/09/16 21:00:20;;;;;;;35.88;28.92;;;25.30;56.70;;;;;;4734744;54;21519;-33
2021/09/16 21:05:21;;;;;;;36.33;27.98;;;25.30;56.60;;;;;;4760328;55;21091;-30
2021/09/16 21:10:22;;;;;;;39.53;27.90;;;25.30;56.70;;;;;;4751759;54;21027;-34
2021/09/16 21:15:23;;;;;;;34.83;27.98;;;25.30;56.70;;;;;;4793822;54;21836;-34
2021/09/16 21:20:23;;;;;;;35.08;27.77;;;25.30;56.70;;;;;;4737283;55;21531;-24
2021/09/16 21:25:24;;;;;;;36.47;28.12;;;25.30;56.70;;;;;;4737262;55;21001;-30
2021/09/16 21:30:25;;;;;;;39.08;28.10;;;25.30;56.70;;;;;;4734314;55;21559;-31
2021/09/16 21:35:27;;;;;;;37.40;27.77;;;25.30;56.70;;;;;;4731375;59;21081;-31
2021/09/16 21:40:29;;;;;;;35.97;27.27;;;25.30;56.70;;;;;;4744478;55;21491;-34
2021/09/16 21:45:30;;;;;;;33.58;27.10;;;25.30;56.70;;;;;;4732830;54;21036;-33
2021/09/16 21:50:30;;;;;;;34.33;27.35;;;25.30;57.40;;;;;;4736339;55;21006;-32
2021/09/16 21:55:31;;;;;;;35.40;27.35;;;25.30;56.80;;;;;;4737128;55;21017;-29
2021/09/16 22:00:32;;;;;;;33.83;26.95;;;25.30;56.70;;;;;;4749910;55;21009;-31
2021/09/16 22:05:33;;;;;;;32.03;25.90;;;25.30;56.70;;;;;;4731845;55;21009;-32
2021/09/16 22:10:34;;;;;;;33.42;26.92;;;25.30;56.70;;;;;;4737580;55;21026;-33
2021/09/16 22:15:35;;;;;;;35.17;26.08;;;25.30;56.80;;;;;;4731664;59;21119;-33
2021/09/16 22:20:36;;;;;;;31.00;25.55;;;25.30;56.70;;;;;;4736321;54;21563;-30
2021/09/16 22:25:37;;;;;;;32.80;25.98;;;25.30;56.80;;;;;;4745121;55;21009;-33
2021/09/16 22:30:38;;;;;;;32.97;24.92;;;25.30;56.70;;;;;;4745707;55;21084;-33
2021/09/16 22:35:38;;;;;;;31.80;25.58;;;25.30;57.30;;;;;;4737755;54;21552;-29
2021/09/16 22:40:39;;;;;;;33.75;25.50;;;25.30;56.70;;;;;;4736829;55;21088;-33
2021/09/16 22:45:40;;;;;;;30.70;24.85;;;25.30;56.70;;;;;;4740847;55;21495;-32
2021/09/16 22:50:41;;;;;;;30.80;25.20;;;25.30;56.70;;;;;;4738973;54;21025;-30
2021/09/16 22:55:42;;;;;;;32.15;25.62;;;25.30;56.70;;;;;;4731185;59;21037;-33
2021/09/16 23:00:43;;;;;;;31.00;24.33;;;25.30;56.70;;;;;;4823940;54;21001;-32
2021/09/16 23:05:44;;;;;;;30.35;24.80;;;25.30;56.70;;;;;;4756379;55;21085;-29
2021/09/16 23:10:46;;;;;;;29.60;24.48;;;25.30;56.80;;;;;;4779151;55;21045;-31
2021/09/16 23:15:47;;;;;;;32.78;24.02;;;25.30;56.70;;;;;;4733446;54;21172;-32
2021/09/16 23:20:50;;;;;;;30.08;24.65;;;25.30;56.70;;;;;;4741429;55;21012;-34
2021/09/16 23:25:51;;;;;;;32.08;24.50;;;25.30;56.70;;;;;;4736763;55;21037;-33
2021/09/16 23:30:52;;;;;;;31.55;25.45;;;25.30;56.70;;;;;;4737582;54;21032;-35
2021/09/16 23:35:53;;;;;;;29.52;23.92;;;25.20;56.70;;;;;;4763864;54;21499;-33
2021/09/16 23:40:54;;;;;;;28.87;23.85;;;25.30;56.70;;;;;;4776551;55;21002;-33
2021/09/16 23:45:55;;;;;;;30.23;23.95;;;25.30;56.80;;;;;;4744391;54;21009;-33
2021/09/16 23:50:55;;;;;;;27.33;23.23;;;25.30;56.70;;;;;;4752050;55;21017;-32
2021/09/16 23:55:56;;;;;;;28.00;22.80;;;25.30;56.80;;;;;;4731586;56;21022;-33
